Cranham, United Kingdom
Current Conditions -  °F | °C
As of 6:20 AM on Monday 22 Dec 2014 (Local Time) from EGLC Reporting Station
Broken Clouds Broken Clouds  
Wind Chill: 13°   Ceiling: 3000
Heat Index: 13°   Visibility: 6mi
Dew Point: 10°   Wind: 15mph
Humidity: 82%   Direction: 240°WSW
Pressure: 30.03"   Gusts: NA
Location:  51.57°N, 0.27°E
Report Text: EGLC 220620Z 24013KT 9999 SCT018 BKN030 13/10 Q1017 REDZ
Loading
Personal Weather Stations






























Interactive Weather Map New forecast layout! Learn more

10-Day Weather Forecast

Advertisements
Track Severe Weather on mobile